Kaneville, Illinois
Current Conditions -  °F | °C
As of 11:52 AM on Thursday 30 Oct 2014 (Local Time) from KARR Reporting Station
Scattered Clouds Scattered Clouds  
Wind Chill: 44°   Ceiling: Unl
Heat Index: 49°   Visibility: 8mi
Dew Point: 36°   Wind: 12mph
Humidity: 61%   Direction: 220°SW
Pressure: 30.12"   Gusts: NA
Location:  41.84°N, 88.52°W
Report Text: KARR 301652Z 22010KT 8SM SCT110 09/02 A3012 RMK AO2 SLP206 T00940022
Loading
Personal Weather Stations






























Interactive Weather Map
Tropical Storm Tracking
New forecast layout! Learn more

10-Day Weather Forecast

Advertisements
Track Severe Weather on mobile